Terminal Aerodrome Forecast
Issued by NWS Sioux Falls, SD

Home | Current Version | Previous Version | Graphics & Text | Print | Product List | Glossary On
Versions: 1 2 3 4 5 6 7 8 9 10 11 12 13
000
FTUS43 KFSD 211120
TAFFSD
TAF
KFSD 211120Z 2112/2212 VRB02KT P6SM SKC
     FM211400 26007KT P6SM FEW250
     FM211900 23006KT P6SM FEW250
     FM220100 17005KT P6SM SKC
     FM220600 16010KT P6SM SKC WS012/20040KT=

USA.gov is the U.S. government's official web portal to all federal, state and local government web resources and services.